Time;durP1;ratioP1;P1;durP2;ratioP2;P2;SDS_P1;SDS_P2;PMS_P1;PMS_P2;Temp;Humidity;BMP_temperature;BMP_pressure;BME280_temperature;BME280_humidity;BME280_pressure;Samples;Min_cycle;Max_cycle;Signal;HPM_P1;HPM_P2
2022/10/24 00:02:17;;;;;;;;;;;15.50;99.90;;;;;;4988429;28;20360;-69
2022/10/24 00:04:43;;;;;;;;;;;15.50;99.90;;;;;;4973311;28;19910;-69
2022/10/24 00:07:09;;;;;;;;;;;15.50;99.90;;;;;;4988311;28;20284;-69
2022/10/24 00:09:35;;;;;;;;;;;15.50;99.90;;;;;;4973302;28;19918;-69
2022/10/24 00:12:01;;;;;;;;;;;15.40;99.90;;;;;;4988227;28;19910;-69
2022/10/24 00:14:26;;;;;;;;;;;15.40;99.90;;;;;;4988127;28;20386;-69
2022/10/24 00:16:52;;;;;;;;;;;15.20;99.90;;;;;;4972231;28;19917;-69
2022/10/24 00:19:17;;;;;;;;;;;15.30;99.90;;;;;;4973364;28;19911;-69
2022/10/24 00:21:43;;;;;;;;;;;15.40;99.90;;;;;;4973053;28;20306;-69
2022/10/24 00:24:08;;;;;;;;;;;15.30;99.90;;;;;;4973030;28;19910;-69
2022/10/24 00:26:34;;;;;;;;;;;15.20;99.90;;;;;;4972986;28;19910;-69
2022/10/24 00:29:00;;;;;;;;;;;15.20;99.90;;;;;;4988022;28;19910;-69
2022/10/24 00:31:25;;;;;;;;;;;15.10;99.90;;;;;;4972771;28;20005;-69
2022/10/24 00:33:51;;;;;;;;;;;15.10;99.90;;;;;;4972775;28;20009;-69
2022/10/24 00:36:18;;;;;;;;;;;15.10;99.90;;;;;;4987962;28;19911;-69
2022/10/24 00:38:44;;;;;;;;;;;15.00;99.90;;;;;;4987794;28;19916;-69
2022/10/24 00:41:13;;;;;;;;;;;14.90;99.90;;;;;;4972757;28;20001;-69
2022/10/24 00:43:39;;;;;;;;;;;14.90;99.90;;;;;;4972742;28;19917;-69
2022/10/24 00:46:05;;;;;;;;;;;14.80;99.90;;;;;;4972707;28;19911;-69
2022/10/24 00:48:32;;;;;;;;;;;14.80;99.90;;;;;;4987669;28;19914;-70
2022/10/24 00:51:00;;;;;;;;;;;14.70;99.90;;;;;;4972630;28;20375;-70
2022/10/24 00:53:26;;;;;;;;;;;14.70;99.90;;;;;;4972510;28;19966;-69
2022/10/24 00:55:53;;;;;;;;;;;14.70;99.90;;;;;;4972679;28;20012;-70
2022/10/24 00:58:21;;;;;;;;;;;14.60;99.90;;;;;;4972628;28;20279;-70
2022/10/24 01:00:46;;;;;;;;;;;14.70;99.90;;;;;;4972535;28;20517;-69
2022/10/24 01:03:12;;;;;;;;;;;14.60;99.90;;;;;;4987393;28;19975;-70
2022/10/24 01:05:43;;;;;;;;;;;14.60;99.90;;;;;;4972404;28;20005;-70
2022/10/24 01:08:23;;;;;;;;;;;14.60;99.90;;;;;;4972411;28;19910;-69
2022/10/24 01:11:08;;;;;;;;;;;14.60;99.90;;;;;;4972379;28;19910;-69
2022/10/24 01:13:42;;;;;;;;;;;14.50;99.90;;;;;;4972198;28;19914;-70
2022/10/24 01:16:13;;;;;;;;;;;14.50;99.90;;;;;;4972313;28;20390;-69
2022/10/24 01:18:47;;;;;;;;;;;14.50;99.90;;;;;;4987216;28;20371;-69
2022/10/24 01:21:32;;;;;;;;;;;14.60;99.90;;;;;;4972194;28;19910;-70
2022/10/24 01:24:05;;;;;;;;;;;14.60;99.90;;;;;;4972234;28;19910;-69
2022/10/24 01:26:46;;;;;;;;;;;14.50;99.90;;;;;;4987069;28;19910;-69
2022/10/24 01:29:28;;;;;;;;;;;14.50;99.90;;;;;;4971923;28;19921;-69
2022/10/24 01:31:58;;;;;;;;;;;14.50;99.90;;;;;;4971868;28;19918;-69
2022/10/24 01:34:27;;;;;;;;;;;14.50;99.90;;;;;;4972317;28;19918;-70
2022/10/24 01:37:06;;;;;;;;;;;14.60;99.90;;;;;;4971996;28;19996;-69
2022/10/24 01:39:34;;;;;;;;;;;14.70;99.90;;;;;;4972014;28;19953;-70
2022/10/24 01:42:01;;;;;;;;;;;14.80;99.90;;;;;;4971998;28;19917;-70
2022/10/24 01:44:30;;;;;;;;;;;14.80;99.90;;;;;;4971953;28;19968;-70
2022/10/24 01:47:00;;;;;;;;;;;14.80;99.90;;;;;;4971896;28;19917;-69
2022/10/24 01:49:28;;;;;;;;;;;15.10;99.90;;;;;;4986970;28;19910;-70
2022/10/24 01:51:56;;;;;;;;;;;15.10;99.90;;;;;;4986742;28;19910;-70
2022/10/24 01:54:21;;;;;;;;;;;15.10;99.90;;;;;;4971807;28;19922;-70
2022/10/24 01:56:47;;;;;;;;;;;15.20;99.90;;;;;;4986855;28;19910;-70
2022/10/24 02:02:07;;;;;;;;;;;15.30;99.90;;;;;;5079946;28;19956;-69
2022/10/24 02:04:35;;;;;;;;;;;15.30;99.90;;;;;;5046313;28;19913;-71
2022/10/24 02:07:02;;;;;;;;;;;15.40;99.90;;;;;;5047415;28;20430;-71
2022/10/24 02:09:28;;;;;;;;;;;15.70;99.90;;;;;;5047421;28;20373;-71
2022/10/24 02:11:55;;;;;;;;;;;15.70;99.90;;;;;;5047457;28;19919;-71
2022/10/24 02:14:32;;;;;;;;;;;15.70;99.90;;;;;;5047290;28;20422;-71
2022/10/24 02:16:58;;;;;;;;;;;15.70;99.90;;;;;;5047323;28;20004;-71
2022/10/24 02:19:24;;;;;;;;;;;15.80;99.90;;;;;;5046102;28;19913;-69
2022/10/24 02:22:09;;;;;;;;;;;15.90;99.90;;;;;;5047136;28;19958;-69
2022/10/24 02:24:47;;;;;;;;;;;15.80;99.90;;;;;;5045784;28;20284;-69
2022/10/24 02:27:16;;;;;;;;;;;15.90;99.90;;;;;;5047125;28;20334;-71
2022/10/24 02:30:01;;;;;;;;;;;16.00;99.90;;;;;;5047111;28;20012;-71
2022/10/24 02:32:29;;;;;;;;;;;16.10;99.90;;;;;;5047022;28;20305;-71
2022/10/24 02:34:55;;;;;;;;;;;16.10;99.90;;;;;;5047066;28;19921;-71
2022/10/24 02:37:22;;;;;;;;;;;16.10;99.90;;;;;;5046993;28;19909;-72
2022/10/24 02:39:48;;;;;;;;;;;16.20;99.90;;;;;;5046993;28;19913;-71
2022/10/24 02:42:14;;;;;;;;;;;16.10;99.90;;;;;;5029122;28;20305;-72
2022/10/24 02:44:41;;;;;;;;;;;16.10;99.90;;;;;;5046902;28;19909;-71
2022/10/24 02:47:07;;;;;;;;;;;16.20;99.90;;;;;;5045627;28;19909;-72
2022/10/24 02:49:32;;;;;;;;;;;16.20;99.90;;;;;;5045554;28;19909;-72
2022/10/24 02:51:58;;;;;;;;;;;16.10;99.90;;;;;;5046756;28;20025;-73
2022/10/24 02:54:23;;;;;;;;;;;16.10;99.90;;;;;;5046716;28;19909;-72
2022/10/24 02:56:52;;;;;;;;;;;16.20;99.90;;;;;;5046689;28;19931;-71
2022/10/24 02:59:17;;;;;;;;;;;16.30;99.90;;;;;;5046633;28;19957;-72
2022/10/24 03:01:43;;;;;;;;;;;16.30;99.90;;;;;;5046414;28;19921;-72
2022/10/24 03:04:08;;;;;;;;;;;16.40;99.90;;;;;;5045337;28;19913;-72
2022/10/24 03:06:33;;;;;;;;;;;16.40;99.90;;;;;;5045299;28;20370;-72
2022/10/24 03:08:59;;;;;;;;;;;16.30;99.90;;;;;;5046488;28;19916;-72
2022/10/24 03:11:24;;;;;;;;;;;16.40;99.90;;;;;;5043503;28;19909;-72
2022/10/24 03:13:50;;;;;;;;;;;16.40;99.90;;;;;;5032988;28;19966;-72
2022/10/24 03:16:16;;;;;;;;;;;16.50;99.90;;;;;;5033160;28;19939;-72
2022/10/24 03:18:41;;;;;;;;;;;16.50;99.90;;;;;;5033091;28;20256;-72
2022/10/24 03:21:07;;;;;;;;;;;16.70;99.90;;;;;;5032978;28;20007;-72
2022/10/24 03:23:32;;;;;;;;;;;16.70;99.90;;;;;;5031796;28;20390;-72
2022/10/24 03:25:58;;;;;;;;;;;16.70;99.90;;;;;;5033042;28;19910;-72
2022/10/24 03:28:24;;;;;;;;;;;16.90;99.90;;;;;;5032977;28;19909;-72
2022/10/24 03:30:49;;;;;;;;;;;16.90;99.90;;;;;;5033042;28;20304;-72
2022/10/24 03:33:15;;;;;;;;;;;16.80;99.90;;;;;;5032871;28;19956;-72
2022/10/24 03:35:41;;;;;;;;;;;16.90;99.90;;;;;;5032829;28;19909;-72
2022/10/24 03:38:07;;;;;;;;;;;16.80;99.90;;;;;;5032866;28;19916;-72
2022/10/24 03:40:33;;;;;;;;;;;16.70;99.90;;;;;;5032687;28;20376;-72
2022/10/24 03:42:58;;;;;;;;;;;16.80;99.90;;;;;;5031597;28;20468;-72
2022/10/24 03:45:24;;;;;;;;;;;16.80;99.90;;;;;;5032951;28;19999;-72
2022/10/24 03:47:49;;;;;;;;;;;16.80;99.90;;;;;;5031371;28;20367;-72
2022/10/24 03:50:15;;;;;;;;;;;16.80;99.90;;;;;;5032585;28;19916;-72
2022/10/24 03:52:40;;;;;;;;;;;17.00;99.90;;;;;;5032591;28;19917;-72
2022/10/24 03:55:06;;;;;;;;;;;17.00;99.90;;;;;;5031284;28;20328;-73
2022/10/24 03:57:31;;;;;;;;;;;17.00;99.90;;;;;;5032491;28;19916;-72
2022/10/24 03:59:56;;;;;;;;;;;16.90;99.90;;;;;;5014495;28;20366;-72
2022/10/24 04:02:22;;;;;;;;;;;16.90;99.90;;;;;;5032471;28;19909;-73
2022/10/24 04:04:47;;;;;;;;;;;16.90;99.90;;;;;;5032484;28;19909;-72
2022/10/24 04:07:13;;;;;;;;;;;17.00;99.90;;;;;;5031205;28;19944;-73
2022/10/24 04:09:38;;;;;;;;;;;16.90;99.90;;;;;;5032262;28;19916;-73
2022/10/24 04:12:04;;;;;;;;;;;16.80;99.90;;;;;;5032297;28;19913;-73
2022/10/24 04:14:29;;;;;;;;;;;16.80;99.90;;;;;;5032249;28;19917;-73
2022/10/24 04:16:55;;;;;;;;;;;16.80;99.90;;;;;;5032266;28;19909;-72
2022/10/24 04:19:20;;;;;;;;;;;16.80;99.90;;;;;;5032169;28;20282;-73
2022/10/24 04:21:46;;;;;;;;;;;16.70;99.90;;;;;;5032053;28;19913;-73
2022/10/24 04:24:12;;;;;;;;;;;16.70;99.90;;;;;;5031285;28;20350;-72
2022/10/24 04:26:38;;;;;;;;;;;16.60;99.90;;;;;;5032073;28;19916;-73
2022/10/24 04:29:03;;;;;;;;;;;16.70;99.90;;;;;;5032013;28;19917;-72
2022/10/24 04:31:29;;;;;;;;;;;16.70;99.90;;;;;;5030782;28;19917;-73
2022/10/24 04:33:54;;;;;;;;;;;16.80;99.90;;;;;;5031939;28;19913;-72
2022/10/24 04:36:20;;;;;;;;;;;16.80;99.90;;;;;;5030844;28;20393;-73
2022/10/24 04:38:45;;;;;;;;;;;16.80;99.90;;;;;;5031899;28;20366;-72
2022/10/24 04:41:11;;;;;;;;;;;16.90;99.90;;;;;;5031765;28;20315;-72
2022/10/24 04:43:36;;;;;;;;;;;16.80;99.90;;;;;;5030661;28;19917;-72
2022/10/24 04:46:02;;;;;;;;;;;16.80;99.90;;;;;;5031811;28;19909;-73
2022/10/24 04:48:28;;;;;;;;;;;16.80;99.90;;;;;;5031751;28;20373;-72
2022/10/24 04:50:54;;;;;;;;;;;16.80;99.90;;;;;;5031756;28;19909;-72
2022/10/24 04:53:19;;;;;;;;;;;16.90;99.90;;;;;;5030508;28;19909;-72
2022/10/24 04:55:44;;;;;;;;;;;16.80;99.90;;;;;;5031586;28;20267;-72
2022/10/24 04:58:10;;;;;;;;;;;16.90;99.90;;;;;;5031559;28;19909;-73
2022/10/24 05:00:35;;;;;;;;;;;16.80;99.90;;;;;;5030083;28;19943;-72
2022/10/24 05:03:01;;;;;;;;;;;16.70;99.90;;;;;;5031473;28;19935;-72
2022/10/24 05:05:27;;;;;;;;;;;16.70;99.90;;;;;;5030273;28;20270;-72
2022/10/24 05:07:52;;;;;;;;;;;16.70;99.90;;;;;;5031419;28;20007;-72
2022/10/24 05:10:18;;;;;;;;;;;16.70;99.90;;;;;;5031371;28;19909;-72
2022/10/24 05:12:43;;;;;;;;;;;16.70;99.90;;;;;;5031338;28;19917;-73
2022/10/24 05:15:09;;;;;;;;;;;16.60;99.90;;;;;;5030109;28;19916;-73
2022/10/24 05:17:34;;;;;;;;;;;16.60;99.90;;;;;;5030147;28;19909;-72
2022/10/24 05:20:00;;;;;;;;;;;16.50;99.90;;;;;;5031099;28;19999;-70
2022/10/24 05:22:25;;;;;;;;;;;16.50;99.90;;;;;;5031239;28;19909;-72
2022/10/24 05:24:51;;;;;;;;;;;16.40;99.90;;;;;;5031210;28;19909;-72
2022/10/24 05:27:23;;;;;;;;;;;16.40;99.90;;;;;;5031125;28;19961;-72
2022/10/24 05:29:49;;;;;;;;;;;16.50;99.90;;;;;;5031078;28;19909;-72
2022/10/24 05:32:14;;;;;;;;;;;16.60;99.90;;;;;;5031093;28;20374;-73
2022/10/24 05:34:40;;;;;;;;;;;16.50;99.90;;;;;;5029531;28;19917;-72
2022/10/24 05:37:05;;;;;;;;;;;16.50;99.90;;;;;;5030968;28;19909;-72
2022/10/24 05:39:31;;;;;;;;;;;16.60;99.90;;;;;;5029782;28;20408;-73
2022/10/24 05:41:56;;;;;;;;;;;16.60;99.90;;;;;;5030873;28;20367;-73
2022/10/24 05:44:22;;;;;;;;;;;16.60;99.90;;;;;;5030032;28;19992;-72
2022/10/24 05:46:47;;;;;;;;;;;16.60;99.90;;;;;;5029600;28;19966;-73
2022/10/24 05:49:13;;;;;;;;;;;16.50;99.90;;;;;;5030851;28;19909;-72
2022/10/24 05:51:38;;;;;;;;;;;16.50;99.90;;;;;;5030730;28;19916;-72
2022/10/24 05:54:04;;;;;;;;;;;16.50;99.90;;;;;;5030802;28;19910;-73
2022/10/24 05:56:29;;;;;;;;;;;16.50;99.90;;;;;;5029426;28;20393;-73
2022/10/24 05:58:55;;;;;;;;;;;16.50;99.90;;;;;;5012220;28;19914;-72
2022/10/24 06:01:21;;;;;;;;;;;16.60;99.90;;;;;;5017102;28;20024;-71
2022/10/24 06:03:46;;;;;;;;;;;16.70;99.90;;;;;;5018736;28;19961;-72
2022/10/24 06:06:12;;;;;;;;;;;16.60;99.90;;;;;;5041778;28;19918;-72
2022/10/24 06:08:37;;;;;;;;;;;16.60;99.90;;;;;;5028409;28;19920;-72
2022/10/24 06:11:03;;;;;;;;;;;16.60;99.90;;;;;;5027362;28;21355;-72
2022/10/24 06:13:29;;;;;;;;;;;16.50;99.90;;;;;;5026233;28;19917;-71
2022/10/24 06:15:55;;;;;;;;;;;16.60;99.90;;;;;;5025454;28;20278;-72
2022/10/24 06:18:20;;;;;;;;;;;16.50;99.90;;;;;;5008750;28;19921;-72
2022/10/24 06:20:46;;;;;;;;;;;16.40;99.90;;;;;;5031764;28;19924;-72
2022/10/24 06:23:11;;;;;;;;;;;16.30;99.90;;;;;;5033679;28;19913;-71
2022/10/24 06:25:39;;;;;;;;;;;16.40;99.90;;;;;;5038053;28;20286;-69
2022/10/24 06:28:06;;;;;;;;;;;16.50;99.90;;;;;;5028980;28;19914;-70
2022/10/24 06:30:32;;;;;;;;;;;16.50;99.90;;;;;;5053985;28;19913;-70
2022/10/24 06:32:57;;;;;;;;;;;16.50;99.90;;;;;;5025267;28;19921;-68
2022/10/24 06:35:23;;;;;;;;;;;16.50;99.90;;;;;;5027131;28;19913;-70
2022/10/24 06:37:48;;;;;;;;;;;16.60;99.90;;;;;;5030025;28;19909;-69
2022/10/24 06:40:14;;;;;;;;;;;16.60;99.90;;;;;;5028240;28;19925;-70
2022/10/24 06:42:40;;;;;;;;;;;16.80;99.90;;;;;;5029420;28;19917;-70
2022/10/24 06:45:05;;;;;;;;;;;17.00;99.90;;;;;;5028474;28;19914;-71
2022/10/24 06:47:31;;;;;;;;;;;17.20;99.90;;;;;;5030264;28;19913;-74
2022/10/24 06:49:57;;;;;;;;;;;17.30;99.90;;;;;;5031513;28;19917;-74
2022/10/24 06:52:22;;;;;;;;;;;17.20;99.90;;;;;;5031254;28;19913;-73
2022/10/24 06:54:48;;;;;;;;;;;17.40;99.90;;;;;;5032496;28;19938;-72
2022/10/24 06:57:13;;;;;;;;;;;17.50;99.90;;;;;;5026043;28;19913;-75
2022/10/24 06:59:39;;;;;;;;;;;17.60;99.90;;;;;;5023467;28;19913;-75
2022/10/24 07:02:04;;;;;;;;;;;17.50;99.90;;;;;;5024938;28;19969;-78
2022/10/24 07:04:30;;;;;;;;;;;17.50;99.90;;;;;;5020184;28;20417;-76
2022/10/24 07:06:55;;;;;;;;;;;17.40;99.90;;;;;;5022423;28;19913;-78
2022/10/24 07:09:21;;;;;;;;;;;17.40;99.90;;;;;;5038235;27;19921;-79
2022/10/24 07:11:46;;;;;;;;;;;17.50;99.90;;;;;;5026542;28;19999;-73
2022/10/24 07:14:12;;;;;;;;;;;17.50;99.90;;;;;;5030998;28;19913;-74
2022/10/24 07:16:37;;;;;;;;;;;17.60;99.90;;;;;;5040525;28;20365;-73
2022/10/24 07:19:04;;;;;;;;;;;17.70;99.90;;;;;;5027975;28;19982;-77
2022/10/24 07:21:30;;;;;;;;;;;17.70;99.90;;;;;;5027717;28;19953;-76
2022/10/24 07:23:56;;;;;;;;;;;17.80;99.90;;;;;;5040868;28;20278;-75
2022/10/24 07:26:23;;;;;;;;;;;17.80;99.90;;;;;;5029376;28;19913;-73
2022/10/24 07:28:52;;;;;;;;;;;17.90;99.90;;;;;;5024844;27;19921;-75
2022/10/24 07:31:18;;;;;;;;;;;17.90;99.90;;;;;;5027468;28;20008;-70
2022/10/24 07:33:44;;;;;;;;;;;17.90;99.90;;;;;;5030478;28;19913;-70
2022/10/24 07:36:13;;;;;;;;;;;18.00;99.90;;;;;;5029964;28;19913;-71
2022/10/24 07:38:39;;;;;;;;;;;18.30;99.90;;;;;;5028212;28;19999;-70
2022/10/24 07:41:04;;;;;;;;;;;18.30;99.90;;;;;;5024908;28;20016;-69
2022/10/24 07:43:30;;;;;;;;;;;18.70;99.90;;;;;;5031425;28;19924;-71
2022/10/24 07:45:55;;;;;;;;;;;18.80;99.90;;;;;;5028283;28;20423;-70
2022/10/24 07:48:21;;;;;;;;;;;18.90;99.90;;;;;;5030731;28;19913;-68
2022/10/24 07:50:47;;;;;;;;;;;19.00;99.90;;;;;;5031585;28;19970;-70
2022/10/24 07:53:13;;;;;;;;;;;18.70;99.90;;;;;;5031167;28;19917;-68
2022/10/24 07:55:39;;;;;;;;;;;18.70;99.90;;;;;;5026858;28;20001;-69
2022/10/24 07:58:05;;;;;;;;;;;19.20;99.90;;;;;;5025018;28;20375;-69
2022/10/24 08:00:30;;;;;;;;;;;19.40;99.90;;;;;;5027607;28;19929;-70
2022/10/24 08:02:56;;;;;;;;;;;19.00;99.90;;;;;;5024409;28;19920;-70
2022/10/24 08:05:21;;;;;;;;;;;19.40;99.90;;;;;;5026189;28;19982;-69
2022/10/24 08:07:47;;;;;;;;;;;20.00;99.90;;;;;;5031073;28;19940;-70
2022/10/24 08:10:12;;;;;;;;;;;20.50;99.90;;;;;;5027384;28;19913;-70
2022/10/24 08:12:38;;;;;;;;;;;20.60;99.90;;;;;;5024559;28;19935;-69
2022/10/24 08:15:04;;;;;;;;;;;20.50;99.90;;;;;;5031273;28;20425;-68
2022/10/24 08:17:29;;;;;;;;;;;20.60;99.90;;;;;;5030726;28;20453;-71
2022/10/24 08:19:55;;;;;;;;;;;20.80;99.90;;;;;;5028264;28;19919;-70
2022/10/24 08:22:20;;;;;;;;;;;20.60;99.90;;;;;;5030353;28;20389;-70
2022/10/24 08:24:46;;;;;;;;;;;20.60;99.90;;;;;;5030927;28;19913;-68
2022/10/24 08:27:11;;;;;;;;;;;20.50;99.90;;;;;;5026968;28;19995;-69
2022/10/24 08:29:37;;;;;;;;;;;20.00;99.90;;;;;;5028837;28;20310;-68
2022/10/24 08:32:03;;;;;;;;;;;19.40;99.90;;;;;;5029912;28;20025;-69
2022/10/24 08:34:29;;;;;;;;;;;19.40;99.90;;;;;;5029121;28;20434;-68
2022/10/24 08:36:54;;;;;;;;;;;19.50;99.90;;;;;;5028392;28;20004;-68
2022/10/24 08:39:19;;;;;;;;;;;19.50;99.90;;;;;;5051555;27;19963;-69
2022/10/24 08:41:49;;;;;;;;;;;19.50;99.90;;;;;;5029280;27;19924;-69
2022/10/24 08:44:24;;;;;;;;;;;19.60;99.90;;;;;;5029214;28;20286;-70
2022/10/24 08:46:51;;;;;;;;;;;19.60;99.90;;;;;;5030989;28;19920;-68
2022/10/24 08:49:23;;;;;;;;;;;19.90;99.90;;;;;;5020581;28;19920;-71
2022/10/24 08:51:52;;;;;;;;;;;19.90;99.90;;;;;;5011393;28;19929;-68
2022/10/24 08:54:21;;;;;;;;;;;19.30;99.90;;;;;;5029024;28;19923;-70
2022/10/24 08:56:47;;;;;;;;;;;19.10;99.90;;;;;;5043940;27;19912;-69
2022/10/24 08:59:12;;;;;;;;;;;19.00;99.90;;;;;;5058330;27;19918;-69
2022/10/24 09:01:56;;;;;;;;;;;18.80;99.90;;;;;;5037677;27;19922;-70
2022/10/24 09:04:23;;;;;;;;;;;18.80;99.90;;;;;;5020659;28;19954;-68
2022/10/24 09:06:50;;;;;;;;;;;18.60;99.90;;;;;;5022917;28;19914;-68
2022/10/24 09:09:19;;;;;;;;;;;18.50;99.90;;;;;;5026207;28;19919;-69
2022/10/24 09:12:05;;;;;;;;;;;18.40;99.90;;;;;;5027825;28;19920;-70
2022/10/24 09:14:32;;;;;;;;;;;18.30;99.90;;;;;;5030772;28;19966;-71
2022/10/24 09:17:17;;;;;;;;;;;18.20;99.90;;;;;;5029630;28;20423;-71
2022/10/24 09:19:47;;;;;;;;;;;18.10;99.90;;;;;;5030618;28;20015;-70
2022/10/24 09:22:17;;;;;;;;;;;18.10;99.90;;;;;;5028704;28;19917;-70
2022/10/24 09:24:49;;;;;;;;;;;18.10;99.90;;;;;;5029124;28;19916;-70
2022/10/24 09:27:18;;;;;;;;;;;18.10;99.90;;;;;;5027646;28;19952;-70
2022/10/24 09:29:43;;;;;;;;;;;18.00;99.90;;;;;;5063002;27;19973;-72
2022/10/24 09:32:13;;;;;;;;;;;17.90;99.90;;;;;;5032874;27;19914;-74
2022/10/24 09:34:38;;;;;;;;;;;17.90;99.90;;;;;;5030319;28;20377;-74
2022/10/24 09:37:04;;;;;;;;;;;17.90;99.90;;;;;;5030323;28;19913;-73
2022/10/24 09:39:31;;;;;;;;;;;17.80;99.90;;;;;;5031082;28;20082;-72
2022/10/24 09:41:57;;;;;;;;;;;17.80;99.90;;;;;;5027896;28;19969;-71
2022/10/24 09:44:27;;;;;;;;;;;17.80;99.90;;;;;;5024633;28;20046;-74
2022/10/24 09:46:53;;;;;;;;;;;17.80;99.90;;;;;;5027657;28;19913;-74
2022/10/24 09:49:21;;;;;;;;;;;17.80;99.90;;;;;;5026898;28;20294;-74
2022/10/24 09:51:58;;;;;;;;;;;17.80;99.90;;;;;;5019011;28;20439;-71
2022/10/24 09:54:25;;;;;;;;;;;17.70;99.90;;;;;;5037933;28;19919;-75
2022/10/24 09:56:54;;;;;;;;;;;17.70;99.90;;;;;;5040423;28;19967;-73
2022/10/24 09:59:27;;;;;;;;;;;17.80;99.90;;;;;;5015654;28;20076;-74
2022/10/24 10:01:52;;;;;;;;;;;17.80;99.90;;;;;;5020083;28;19929;-74
2022/10/24 10:04:18;;;;;;;;;;;17.80;99.90;;;;;;5011546;28;19914;-73
2022/10/24 10:06:45;;;;;;;;;;;17.80;99.90;;;;;;5028141;28;19920;-74
2022/10/24 10:09:12;;;;;;;;;;;17.80;99.90;;;;;;5022134;28;19917;-72
2022/10/24 10:11:37;;;;;;;;;;;17.70;99.90;;;;;;5026159;28;19917;-72
2022/10/24 10:14:14;;;;;;;;;;;17.80;99.90;;;;;;5026744;28;19913;-72
2022/10/24 10:16:40;;;;;;;;;;;17.80;99.90;;;;;;5030556;28;19955;-72
2022/10/24 10:19:15;;;;;;;;;;;17.90;99.90;;;;;;5028323;28;20008;-74
2022/10/24 10:21:51;;;;;;;;;;;17.90;99.90;;;;;;5028873;28;19967;-73
2022/10/24 10:24:23;;;;;;;;;;;17.90;99.90;;;;;;5031905;28;19913;-75
2022/10/24 10:26:49;;;;;;;;;;;17.90;99.90;;;;;;5032346;28;19913;-74
2022/10/24 10:29:20;;;;;;;;;;;17.80;99.90;;;;;;5030660;28;19956;-75
2022/10/24 10:31:49;;;;;;;;;;;17.80;99.90;;;;;;5028318;28;19985;-70
2022/10/24 10:34:19;;;;;;;;;;;17.90;99.90;;;;;;5033946;27;19914;-72
2022/10/24 10:37:04;;;;;;;;;;;17.90;99.90;;;;;;5031390;28;20290;-71
2022/10/24 10:39:38;;;;;;;;;;;18.10;99.90;;;;;;5040388;27;20301;-71
2022/10/24 10:42:11;;;;;;;;;;;18.30;99.90;;;;;;5032287;28;19952;-73
2022/10/24 10:44:45;;;;;;;;;;;18.30;99.90;;;;;;5030249;28;20731;-70
2022/10/24 10:47:14;;;;;;;;;;;18.30;99.90;;;;;;5029725;28;19920;-71
2022/10/24 10:49:40;;;;;;;;;;;18.30;99.90;;;;;;5031141;28;20357;-72
2022/10/24 10:52:11;;;;;;;;;;;18.20;99.90;;;;;;5032787;28;19913;-72
2022/10/24 10:54:44;;;;;;;;;;;18.20;99.90;;;;;;5025637;28;19920;-72
2022/10/24 10:57:30;;;;;;;;;;;18.10;99.90;;;;;;5029747;27;19932;-71
2022/10/24 11:00:01;;;;;;;;;;;18.00;99.90;;;;;;5038966;27;20334;-72
2022/10/24 11:02:39;;;;;;;;;;;18.00;99.90;;;;;;5022143;27;19917;-72
2022/10/24 11:05:25;;;;;;;;;;;18.10;99.90;;;;;;5025058;28;19913;-71
2022/10/24 11:10:52;;;;;;;;;;;18.20;99.90;;;;;;5076551;27;19927;-71
2022/10/24 11:13:20;;;;;;;;;;;18.20;99.90;;;;;;5075388;28;19912;-71
2022/10/24 11:15:48;;;;;;;;;;;18.10;99.90;;;;;;5073261;28;19912;-71
2022/10/24 11:18:17;;;;;;;;;;;18.20;99.90;;;;;;5073261;28;19920;-69
2022/10/24 11:20:47;;;;;;;;;;;18.30;99.90;;;;;;5078224;28;19912;-69
2022/10/24 11:23:18;;;;;;;;;;;18.30;99.90;;;;;;5072307;28;19913;-71
2022/10/24 11:25:47;;;;;;;;;;;18.40;99.90;;;;;;5074280;28;19919;-70
2022/10/24 11:28:32;;;;;;;;;;;18.50;99.90;;;;;;5073082;28;20003;-67
2022/10/24 11:31:04;;;;;;;;;;;18.50;99.90;;;;;;5069609;28;19957;-67
2022/10/24 11:33:33;;;;;;;;;;;18.40;99.90;;;;;;5074639;28;19917;-68
2022/10/24 11:36:19;;;;;;;;;;;18.40;99.90;;;;;;5069681;28;19913;-66
2022/10/24 11:38:48;;;;;;;;;;;18.40;99.90;;;;;;5069826;28;19909;-67
2022/10/24 11:41:18;;;;;;;;;;;18.40;99.90;;;;;;5064051;28;19967;-68
2022/10/24 11:43:45;;;;;;;;;;;18.30;99.90;;;;;;5063216;28;19913;-69
2022/10/24 11:46:16;;;;;;;;;;;18.20;99.90;;;;;;5066268;28;19924;-69
2022/10/24 11:48:45;;;;;;;;;;;18.20;99.90;;;;;;5067113;28;19917;-68
2022/10/24 11:51:16;;;;;;;;;;;18.20;99.90;;;;;;5065422;28;20366;-68
2022/10/24 11:53:45;;;;;;;;;;;18.20;99.90;;;;;;5087139;28;20374;-68
2022/10/24 11:56:16;;;;;;;;;;;18.20;99.90;;;;;;5081200;28;19919;-68
2022/10/24 11:58:47;;;;;;;;;;;18.20;99.90;;;;;;5071450;28;19971;-68
2022/10/24 12:01:33;;;;;;;;;;;18.20;99.90;;;;;;5068007;28;19923;-71
2022/10/24 12:04:04;;;;;;;;;;;18.10;99.90;;;;;;5064685;28;19921;-69
2022/10/24 12:06:51;;;;;;;;;;;18.10;99.90;;;;;;5065499;28;19913;-68
2022/10/24 12:09:37;;;;;;;;;;;18.10;99.90;;;;;;5067419;28;19943;-69
2022/10/24 12:12:22;;;;;;;;;;;18.10;99.90;;;;;;5069068;28;19908;-69
2022/10/24 12:14:57;;;;;;;;;;;18.10;99.90;;;;;;5067595;28;19920;-70
2022/10/24 12:17:42;;;;;;;;;;;18.00;99.90;;;;;;5067034;28;19912;-70
2022/10/24 12:20:11;;;;;;;;;;;18.00;99.90;;;;;;5065872;28;20612;-69
2022/10/24 12:22:39;;;;;;;;;;;18.00;99.90;;;;;;5044336;28;19917;-69
2022/10/24 12:25:07;;;;;;;;;;;18.00;99.90;;;;;;5054261;28;19916;-70
2022/10/24 12:27:35;;;;;;;;;;;18.00;99.90;;;;;;5052340;28;19991;-69
2022/10/24 12:30:10;;;;;;;;;;;18.00;99.90;;;;;;5049977;28;19916;-71
2022/10/24 12:32:38;;;;;;;;;;;18.00;99.90;;;;;;5049681;28;19921;-70
2022/10/24 12:35:23;;;;;;;;;;;18.00;99.90;;;;;;5044417;28;19913;-69
2022/10/24 12:37:49;;;;;;;;;;;18.00;99.90;;;;;;5047063;28;20374;-69
2022/10/24 12:40:34;;;;;;;;;;;18.00;99.90;;;;;;5055089;28;19917;-69
2022/10/24 12:45:38;;;;;;;;;;;18.10;99.90;;;;;;5090954;27;19916;-71
2022/10/24 12:48:23;;;;;;;;;;;18.20;99.90;;;;;;5084712;28;20341;-74
2022/10/24 12:50:56;;;;;;;;;;;18.10;99.90;;;;;;5068151;28;19923;-72
2022/10/24 12:53:38;;;;;;;;;;;18.00;99.90;;;;;;5090854;28;19920;-73
2022/10/24 12:56:05;;;;;;;;;;;17.90;99.90;;;;;;5081767;28;19956;-73
2022/10/24 12:58:33;;;;;;;;;;;18.00;99.90;;;;;;5069579;28;19919;-73
2022/10/24 13:01:00;;;;;;;;;;;18.00;99.90;;;;;;5086312;28;20309;-73
2022/10/24 13:03:42;;;;;;;;;;;18.10;99.90;;;;;;5091966;28;20405;-73
2022/10/24 13:06:25;;;;;;;;;;;18.10;99.90;;;;;;5063661;28;20449;-75
2022/10/24 13:09:11;;;;;;;;;;;18.00;99.90;;;;;;5061744;28;19952;-73
2022/10/24 13:11:56;;;;;;;;;;;18.10;99.90;;;;;;5066636;28;19921;-73
2022/10/24 13:14:41;;;;;;;;;;;18.00;99.90;;;;;;5059652;28;19924;-74
2022/10/24 13:17:10;;;;;;;;;;;18.00;99.90;;;;;;5069300;28;19913;-72
2022/10/24 13:19:36;;;;;;;;;;;18.00;99.90;;;;;;5090329;28;20367;-72
2022/10/24 13:22:01;;;;;;;;;;;18.00;99.90;;;;;;5059336;28;19913;-73
2022/10/24 13:24:29;;;;;;;;;;;18.10;99.90;;;;;;5069271;28;19916;-72
2022/10/24 13:29:36;;;;;;;;;;;17.80;99.90;;;;;;5088280;27;19916;-73
2022/10/24 13:34:52;;;;;;;;;;;17.80;99.90;;;;;;5062378;27;19917;-78
2022/10/24 13:37:37;;;;;;;;;;;17.70;99.90;;;;;;5072109;28;19943;-76
2022/10/24 13:40:08;;;;;;;;;;;17.60;99.90;;;;;;5059745;28;19913;-73
2022/10/24 13:42:36;;;;;;;;;;;17.60;99.90;;;;;;5066680;28;20003;-72
2022/10/24 13:45:03;;;;;;;;;;;17.80;99.90;;;;;;5067755;28;19919;-74
2022/10/24 13:47:41;;;;;;;;;;;17.80;99.90;;;;;;5066916;28;19939;-73
2022/10/24 13:50:16;;;;;;;;;;;17.80;99.90;;;;;;5063784;28;20267;-73
2022/10/24 13:52:59;;;;;;;;;;;17.80;99.90;;;;;;5073501;28;19916;-72
2022/10/24 13:55:29;;;;;;;;;;;17.80;99.90;;;;;;5057651;28;19917;-73
2022/10/24 13:57:59;;;;;;;;;;;17.80;99.90;;;;;;5063536;28;19916;-74
2022/10/24 14:00:27;;;;;;;;;;;17.70;99.90;;;;;;5060947;28;19928;-74
2022/10/24 14:02:53;;;;;;;;;;;17.70;99.90;;;;;;5062114;28;19936;-72
2022/10/24 14:05:25;;;;;;;;;;;17.60;99.90;;;;;;5058931;28;20311;-73
2022/10/24 14:07:50;;;;;;;;;;;17.60;99.90;;;;;;5065119;28;19952;-75
2022/10/24 14:10:16;;;;;;;;;;;17.50;99.90;;;;;;5084622;28;19955;-72
2022/10/24 14:12:43;;;;;;;;;;;17.50;99.90;;;;;;5070191;28;20070;-72
2022/10/24 14:15:26;;;;;;;;;;;17.50;99.90;;;;;;5060041;28;20011;-77
2022/10/24 14:17:54;;;;;;;;;;;17.60;99.90;;;;;;5060577;28;20281;-77
2022/10/24 14:20:22;;;;;;;;;;;17.60;99.90;;;;;;5066858;28;19920;-76
2022/10/24 14:22:48;;;;;;;;;;;17.70;99.90;;;;;;5065230;28;19913;-77
2022/10/24 14:25:34;;;;;;;;;;;17.70;99.90;;;;;;5063104;28;20302;-77
2022/10/24 14:28:02;;;;;;;;;;;17.70;99.90;;;;;;5063487;28;19917;-76
2022/10/24 14:30:28;;;;;;;;;;;17.70;99.90;;;;;;5094551;28;19920;-75
2022/10/24 14:33:14;;;;;;;;;;;17.70;99.90;;;;;;5054399;28;20279;-76
2022/10/24 14:35:40;;;;;;;;;;;17.70;99.90;;;;;;5069276;28;20326;-77
2022/10/24 14:38:05;;;;;;;;;;;17.70;99.90;;;;;;5069458;28;19997;-76
2022/10/24 14:40:31;;;;;;;;;;;17.70;99.90;;;;;;5085273;28;19962;-75